sensor_id;sensor_type;location;lat;lon;timestamp;noise_LAeq;noise_LA_min;noise_LA_max;noise_LA01;noise_LA95
67314;Laerm;57663;51.436;5.978;2022-10-16T00:00:01;39.51;37.31;47.27;;
67314;Laerm;57663;51.436;5.978;2022-10-16T00:00:11;42.04;37.50;51.41;;
67314;Laerm;57663;51.436;5.978;2022-10-16T00:00:22;38.64;36.80;45.27;;
67314;Laerm;57663;51.436;5.978;2022-10-16T00:00:32;38.96;36.62;44.50;;
67314;Laerm;57663;51.436;5.978;2022-10-16T00:00:44;38.69;37.33;40.59;;
67314;Laerm;57663;51.436;5.978;2022-10-16T00:00:54;39.37;37.08;45.55;;
67314;Laerm;57663;51.436;5.978;2022-10-16T00:01:06;39.01;37.08;43.53;;
67314;Laerm;57663;51.436;5.978;2022-10-16T00:01:17;38.74;36.67;48.20;;
67314;Laerm;57663;51.436;5.978;2022-10-16T00:01:28;38.71;36.99;40.58;;
67314;Laerm;57663;51.436;5.978;2022-10-16T00:01:39;38.80;37.27;42.61;;
67314;Laerm;57663;51.436;5.978;2022-10-16T00:01:49;38.95;37.03;41.52;;
67314;Laerm;57663;51.436;5.978;2022-10-16T00:01:59;39.46;37.23;41.95;;
67314;Laerm;57663;51.436;5.978;2022-10-16T00:02:10;39.10;37.53;41.72;;
67314;Laerm;57663;51.436;5.978;2022-10-16T00:02:20;38.52;37.20;41.65;;
67314;Laerm;57663;51.436;5.978;2022-10-16T00:02:30;38.44;37.03;41.55;;
67314;Laerm;57663;51.436;5.978;2022-10-16T00:02:41;38.27;37.08;39.59;;
67314;Laerm;57663;51.436;5.978;2022-10-16T00:02:51;38.64;37.18;41.46;;
67314;Laerm;57663;51.436;5.978;2022-10-16T00:03:02;39.07;37.15;42.92;;
67314;Laerm;57663;51.436;5.978;2022-10-16T00:03:12;39.69;37.63;45.51;;
67314;Laerm;57663;51.436;5.978;2022-10-16T00:03:23;40.67;37.98;44.27;;
67314;Laerm;57663;51.436;5.978;2022-10-16T00:03:33;40.11;37.66;44.75;;
67314;Laerm;57663;51.436;5.978;2022-10-16T00:03:44;39.34;37.51;44.60;;
67314;Laerm;57663;51.436;5.978;2022-10-16T00:03:55;39.52;37.21;43.79;;
67314;Laerm;57663;51.436;5.978;2022-10-16T00:04:05;38.77;36.85;43.95;;
67314;Laerm;57663;51.436;5.978;2022-10-16T00:04:15;38.57;37.28;39.96;;
67314;Laerm;57663;51.436;5.978;2022-10-16T00:04:26;38.96;37.50;42.91;;
67314;Laerm;57663;51.436;5.978;2022-10-16T00:04:36;38.55;36.93;43.45;;
67314;Laerm;57663;51.436;5.978;2022-10-16T00:04:46;39.30;37.56;44.78;;
67314;Laerm;57663;51.436;5.978;2022-10-16T00:04:57;39.47;37.59;43.63;;
67314;Laerm;57663;51.436;5.978;2022-10-16T00:05:07;38.99;37.16;42.45;;
67314;Laerm;57663;51.436;5.978;2022-10-16T00:05:17;38.60;37.11;40.94;;
67314;Laerm;57663;51.436;5.978;2022-10-16T00:05:28;38.94;36.99;41.65;;
67314;Laerm;57663;51.436;5.978;2022-10-16T00:05:41;38.86;37.06;43.25;;
67314;Laerm;57663;51.436;5.978;2022-10-16T00:05:52;38.76;37.32;41.58;;
67314;Laerm;57663;51.436;5.978;2022-10-16T00:06:02;38.65;36.77;42.84;;
67314;Laerm;57663;51.436;5.978;2022-10-16T00:06:13;39.72;37.80;42.85;;
67314;Laerm;57663;51.436;5.978;2022-10-16T00:06:24;40.61;37.99;52.44;;
67314;Laerm;57663;51.436;5.978;2022-10-16T00:06:35;39.47;37.52;42.88;;
67314;Laerm;57663;51.436;5.978;2022-10-16T00:06:45;39.08;37.50;42.39;;
67314;Laerm;57663;51.436;5.978;2022-10-16T00:06:56;43.53;37.51;51.08;;
67314;Laerm;57663;51.436;5.978;2022-10-16T00:07:06;42.77;37.28;52.70;;
67314;Laerm;57663;51.436;5.978;2022-10-16T00:07:17;45.70;38.82;50.46;;
67314;Laerm;57663;51.436;5.978;2022-10-16T00:07:27;39.82;37.20;43.01;;
67314;Laerm;57663;51.436;5.978;2022-10-16T00:07:37;38.34;37.14;39.63;;
67314;Laerm;57663;51.436;5.978;2022-10-16T00:07:47;38.17;36.96;41.83;;
67314;Laerm;57663;51.436;5.978;2022-10-16T00:07:58;38.55;36.61;42.40;;
67314;Laerm;57663;51.436;5.978;2022-10-16T00:08:09;38.30;36.73;40.01;;
67314;Laerm;57663;51.436;5.978;2022-10-16T00:08:19;39.62;37.31;51.24;;
67314;Laerm;57663;51.436;5.978;2022-10-16T00:08:30;38.54;37.12;40.31;;
67314;Laerm;57663;51.436;5.978;2022-10-16T00:08:40;38.52;36.71;41.41;;
67314;Laerm;57663;51.436;5.978;2022-10-16T00:08:51;38.00;36.85;39.30;;
67314;Laerm;57663;51.436;5.978;2022-10-16T00:09:02;38.63;37.26;42.00;;
67314;Laerm;57663;51.436;5.978;2022-10-16T00:09:12;39.14;36.98;42.86;;
67314;Laerm;57663;51.436;5.978;2022-10-16T00:09:23;39.02;37.14;44.33;;
67314;Laerm;57663;51.436;5.978;2022-10-16T00:09:33;38.18;36.85;39.92;;
67314;Laerm;57663;51.436;5.978;2022-10-16T00:09:43;38.71;37.04;43.40;;
67314;Laerm;57663;51.436;5.978;2022-10-16T00:09:54;38.24;36.83;39.73;;
67314;Laerm;57663;51.436;5.978;2022-10-16T00:10:04;38.53;37.34;41.15;;
67314;Laerm;57663;51.436;5.978;2022-10-16T00:10:14;38.27;36.47;40.07;;
67314;Laerm;57663;51.436;5.978;2022-10-16T00:10:25;46.62;37.11;68.51;;
67314;Laerm;57663;51.436;5.978;2022-10-16T00:10:35;38.71;36.97;42.45;;
67314;Laerm;57663;51.436;5.978;2022-10-16T00:10:46;41.36;36.98;56.93;;
67314;Laerm;57663;51.436;5.978;2022-10-16T00:10:59;38.75;37.21;45.77;;
67314;Laerm;57663;51.436;5.978;2022-10-16T00:11:11;38.57;36.68;45.45;;
67314;Laerm;57663;51.436;5.978;2022-10-16T00:11:23;43.07;37.09;64.35;;
67314;Laerm;57663;51.436;5.978;2022-10-16T00:11:35;38.65;37.23;45.82;;
67314;Laerm;57663;51.436;5.978;2022-10-16T00:11:48;38.76;36.89;46.85;;
67314;Laerm;57663;51.436;5.978;2022-10-16T00:11:59;38.18;36.69;39.92;;
67314;Laerm;57663;51.436;5.978;2022-10-16T00:12:09;38.44;36.85;40.02;;
67314;Laerm;57663;51.436;5.978;2022-10-16T00:12:19;38.73;37.50;40.22;;
67314;Laerm;57663;51.436;5.978;2022-10-16T00:12:30;38.64;37.25;41.16;;
67314;Laerm;57663;51.436;5.978;2022-10-16T00:12:40;38.61;37.32;39.96;;
67314;Laerm;57663;51.436;5.978;2022-10-16T00:12:50;38.37;36.81;40.02;;
67314;Laerm;57663;51.436;5.978;2022-10-16T00:13:01;38.47;37.18;40.58;;
67314;Laerm;57663;51.436;5.978;2022-10-16T00:13:11;38.73;37.43;41.17;;
67314;Laerm;57663;51.436;5.978;2022-10-16T00:13:21;39.11;37.25;43.17;;
67314;Laerm;57663;51.436;5.978;2022-10-16T00:13:32;38.49;37.02;42.22;;
67314;Laerm;57663;51.436;5.978;2022-10-16T00:13:43;38.28;36.42;39.99;;
67314;Laerm;57663;51.436;5.978;2022-10-16T00:13:55;38.41;37.02;42.65;;
67314;Laerm;57663;51.436;5.978;2022-10-16T00:14:08;38.33;36.83;40.61;;
67314;Laerm;57663;51.436;5.978;2022-10-16T00:14:18;38.50;36.97;40.84;;
67314;Laerm;57663;51.436;5.978;2022-10-16T00:14:29;38.90;37.46;40.49;;
67314;Laerm;57663;51.436;5.978;2022-10-16T00:14:39;46.82;38.66;56.34;;
67314;Laerm;57663;51.436;5.978;2022-10-16T00:14:51;41.93;36.99;47.92;;
67314;Laerm;57663;51.436;5.978;2022-10-16T00:15:02;38.89;37.47;40.72;;
67314;Laerm;57663;51.436;5.978;2022-10-16T00:15:12;38.86;37.68;40.16;;
67314;Laerm;57663;51.436;5.978;2022-10-16T00:15:23;38.97;37.56;40.19;;
67314;Laerm;57663;51.436;5.978;2022-10-16T00:15:34;38.69;36.96;40.28;;
67314;Laerm;57663;51.436;5.978;2022-10-16T00:15:46;39.36;37.15;42.36;;
67314;Laerm;57663;51.436;5.978;2022-10-16T00:15:57;40.00;38.01;42.82;;
67314;Laerm;57663;51.436;5.978;2022-10-16T00:16:08;38.95;37.32;40.43;;
67314;Laerm;57663;51.436;5.978;2022-10-16T00:16:18;38.61;37.16;42.07;;
67314;Laerm;57663;51.436;5.978;2022-10-16T00:16:29;39.20;37.29;41.57;;
67314;Laerm;57663;51.436;5.978;2022-10-16T00:16:39;58.00;39.29;68.02;;
67314;Laerm;57663;51.436;5.978;2022-10-16T00:16:50;39.10;37.21;40.76;;
67314;Laerm;57663;51.436;5.978;2022-10-16T00:17:00;39.33;37.87;40.69;;
67314;Laerm;57663;51.436;5.978;2022-10-16T00:17:11;38.78;37.33;40.85;;
67314;Laerm;57663;51.436;5.978;2022-10-16T00:17:21;38.03;36.59;39.00;;
67314;Laerm;57663;51.436;5.978;2022-10-16T00:17:31;38.39;36.78;41.80;;
67314;Laerm;57663;51.436;5.978;2022-10-16T00:17:42;38.66;37.18;40.14;;
67314;Laerm;57663;51.436;5.978;2022-10-16T00:17:52;38.52;37.07;39.94;;
67314;Laerm;57663;51.436;5.978;2022-10-16T00:18:03;38.62;37.28;39.93;;
67314;Laerm;57663;51.436;5.978;2022-10-16T00:18:14;40.82;37.71;45.00;;
67314;Laerm;57663;51.436;5.978;2022-10-16T00:18:24;39.57;37.29;48.52;;
67314;Laerm;57663;51.436;5.978;2022-10-16T00:18:35;38.29;36.84;43.20;;
67314;Laerm;57663;51.436;5.978;2022-10-16T00:18:47;38.20;36.75;39.60;;
67314;Laerm;57663;51.436;5.978;2022-10-16T00:18:57;37.98;36.69;39.61;;
67314;Laerm;57663;51.436;5.978;2022-10-16T00:19:09;38.16;36.87;39.31;;
67314;Laerm;57663;51.436;5.978;2022-10-16T00:19:20;38.03;36.76;39.50;;
67314;Laerm;57663;51.436;5.978;2022-10-16T00:19:30;38.30;37.06;39.62;;
67314;Laerm;57663;51.436;5.978;2022-10-16T00:19:41;38.39;36.92;39.64;;
67314;Laerm;57663;51.436;5.978;2022-10-16T00:19:51;38.30;36.70;39.87;;
67314;Laerm;57663;51.436;5.978;2022-10-16T00:20:01;38.66;37.10;42.70;;
67314;Laerm;57663;51.436;5.978;2022-10-16T00:20:12;38.39;37.06;39.93;;
67314;Laerm;57663;51.436;5.978;2022-10-16T00:20:23;38.58;37.26;40.20;;
67314;Laerm;57663;51.436;5.978;2022-10-16T00:20:33;38.41;36.90;39.74;;
67314;Laerm;57663;51.436;5.978;2022-10-16T00:20:44;38.72;37.26;40.38;;
67314;Laerm;57663;51.436;5.978;2022-10-16T00:20:55;39.38;37.38;41.66;;
67314;Laerm;57663;51.436;5.978;2022-10-16T00:21:07;39.74;38.10;41.99;;
67314;Laerm;57663;51.436;5.978;2022-10-16T00:21:21;40.23;37.98;47.92;;
67314;Laerm;57663;51.436;5.978;2022-10-16T00:21:32;38.96;36.98;42.30;;
67314;Laerm;57663;51.436;5.978;2022-10-16T00:21:43;39.13;37.42;41.17;;
67314;Laerm;57663;51.436;5.978;2022-10-16T00:21:53;38.70;37.47;40.04;;
67314;Laerm;57663;51.436;5.978;2022-10-16T00:22:03;44.53;38.08;49.72;;
67314;Laerm;57663;51.436;5.978;2022-10-16T00:22:14;39.88;37.83;42.55;;
67314;Laerm;57663;51.436;5.978;2022-10-16T00:22:24;38.50;37.05;40.22;;
67314;Laerm;57663;51.436;5.978;2022-10-16T00:22:35;38.36;37.06;39.65;;
67314;Laerm;57663;51.436;5.978;2022-10-16T00:22:45;38.50;37.02;40.53;;
67314;Laerm;57663;51.436;5.978;2022-10-16T00:22:55;38.54;37.23;39.72;;
67314;Laerm;57663;51.436;5.978;2022-10-16T00:23:06;38.12;36.73;40.21;;
67314;Laerm;57663;51.436;5.978;2022-10-16T00:23:16;38.43;37.36;39.71;;
67314;Laerm;57663;51.436;5.978;2022-10-16T00:23:26;39.65;37.56;42.18;;
67314;Laerm;57663;51.436;5.978;2022-10-16T00:23:37;47.23;38.46;57.07;;
67314;Laerm;57663;51.436;5.978;2022-10-16T00:23:50;38.20;36.74;39.82;;
67314;Laerm;57663;51.436;5.978;2022-10-16T00:24:04;38.28;37.06;39.86;;
67314;Laerm;57663;51.436;5.978;2022-10-16T00:24:15;37.97;36.81;39.48;;
67314;Laerm;57663;51.436;5.978;2022-10-16T00:24:25;37.95;36.73;39.79;;
67314;Laerm;57663;51.436;5.978;2022-10-16T00:24:36;38.26;36.68;39.47;;
67314;Laerm;57663;51.436;5.978;2022-10-16T00:24:46;38.41;36.97;40.07;;
67314;Laerm;57663;51.436;5.978;2022-10-16T00:24:56;38.31;36.63;40.54;;
67314;Laerm;57663;51.436;5.978;2022-10-16T00:25:07;38.66;37.06;42.29;;
67314;Laerm;57663;51.436;5.978;2022-10-16T00:25:17;38.39;37.28;39.94;;
67314;Laerm;57663;51.436;5.978;2022-10-16T00:25:27;38.72;37.24;43.45;;
67314;Laerm;57663;51.436;5.978;2022-10-16T00:25:38;38.33;36.96;41.22;;
67314;Laerm;57663;51.436;5.978;2022-10-16T00:26:08;38.21;36.91;39.88;;
67314;Laerm;57663;51.436;5.978;2022-10-16T00:26:19;38.51;36.57;43.35;;
67314;Laerm;57663;51.436;5.978;2022-10-16T00:26:30;38.88;37.21;42.01;;
67314;Laerm;57663;51.436;5.978;2022-10-16T00:26:41;38.54;37.05;41.57;;
67314;Laerm;57663;51.436;5.978;2022-10-16T00:26:51;38.36;36.87;42.17;;
67314;Laerm;57663;51.436;5.978;2022-10-16T00:27:02;38.24;36.90;40.71;;
67314;Laerm;57663;51.436;5.978;2022-10-16T00:27:12;38.81;37.29;41.25;;
67314;Laerm;57663;51.436;5.978;2022-10-16T00:27:22;38.42;36.89;40.91;;
67314;Laerm;57663;51.436;5.978;2022-10-16T00:27:33;37.95;36.65;39.08;;
67314;Laerm;57663;51.436;5.978;2022-10-16T00:27:43;37.93;36.40;39.97;;
67314;Laerm;57663;51.436;5.978;2022-10-16T00:27:54;38.19;36.80;39.50;;
67314;Laerm;57663;51.436;5.978;2022-10-16T00:28:04;38.09;36.85;39.42;;
67314;Laerm;57663;51.436;5.978;2022-10-16T00:28:14;37.81;36.39;39.22;;
67314;Laerm;57663;51.436;5.978;2022-10-16T00:28:25;37.87;36.55;39.02;;
67314;Laerm;57663;51.436;5.978;2022-10-16T00:28:36;38.66;37.01;41.74;;
67314;Laerm;57663;51.436;5.978;2022-10-16T00:28:49;43.11;38.83;49.70;;
67314;Laerm;57663;51.436;5.978;2022-10-16T00:29:00;39.16;37.03;41.77;;
67314;Laerm;57663;51.436;5.978;2022-10-16T00:29:10;38.35;37.17;39.87;;
67314;Laerm;57663;51.436;5.978;2022-10-16T00:29:21;38.36;36.89;40.81;;
67314;Laerm;57663;51.436;5.978;2022-10-16T00:29:31;38.41;36.78;42.24;;
67314;Laerm;57663;51.436;5.978;2022-10-16T00:29:41;39.25;37.31;46.69;;
67314;Laerm;57663;51.436;5.978;2022-10-16T00:29:51;38.23;36.78;39.64;;
67314;Laerm;57663;51.436;5.978;2022-10-16T00:30:02;38.19;36.85;39.65;;
67314;Laerm;57663;51.436;5.978;2022-10-16T00:30:13;38.12;36.78;39.89;;
67314;Laerm;57663;51.436;5.978;2022-10-16T00:30:23;38.39;37.20;39.73;;
67314;Laerm;57663;51.436;5.978;2022-10-16T00:30:37;38.42;37.29;39.60;;
67314;Laerm;57663;51.436;5.978;2022-10-16T00:30:47;38.08;36.85;40.21;;
67314;Laerm;57663;51.436;5.978;2022-10-16T00:30:58;37.99;36.73;39.45;;
67314;Laerm;57663;51.436;5.978;2022-10-16T00:31:09;38.45;37.20;40.18;;
67314;Laerm;57663;51.436;5.978;2022-10-16T00:31:21;38.15;36.93;39.47;;
67314;Laerm;57663;51.436;5.978;2022-10-16T00:31:31;38.28;37.05;40.41;;
67314;Laerm;57663;51.436;5.978;2022-10-16T00:31:42;38.18;36.72;39.35;;
67314;Laerm;57663;51.436;5.978;2022-10-16T00:31:52;38.29;36.93;39.96;;
67314;Laerm;57663;51.436;5.978;2022-10-16T00:32:02;38.32;37.06;40.80;;
67314;Laerm;57663;51.436;5.978;2022-10-16T00:32:13;39.83;36.60;49.20;;
67314;Laerm;57663;51.436;5.978;2022-10-16T00:32:23;38.01;36.75;39.46;;
67314;Laerm;57663;51.436;5.978;2022-10-16T00:32:33;38.10;36.84;39.19;;
67314;Laerm;57663;51.436;5.978;2022-10-16T00:32:44;37.92;36.74;39.26;;
67314;Laerm;57663;51.436;5.978;2022-10-16T00:32:54;38.25;36.63;39.68;;
67314;Laerm;57663;51.436;5.978;2022-10-16T00:33:05;37.93;36.41;39.46;;
67314;Laerm;57663;51.436;5.978;2022-10-16T00:33:15;38.65;37.07;43.48;;
67314;Laerm;57663;51.436;5.978;2022-10-16T00:33:26;38.45;36.73;42.04;;
67314;Laerm;57663;51.436;5.978;2022-10-16T00:33:36;38.81;37.15;42.74;;
67314;Laerm;57663;51.436;5.978;2022-10-16T00:33:47;38.20;36.97;41.41;;
67314;Laerm;57663;51.436;5.978;2022-10-16T00:33:57;38.97;37.06;43.20;;
67314;Laerm;57663;51.436;5.978;2022-10-16T00:34:08;38.67;36.76;41.95;;
67314;Laerm;57663;51.436;5.978;2022-10-16T00:34:18;38.57;37.14;42.97;;
67314;Laerm;57663;51.436;5.978;2022-10-16T00:34:28;38.84;37.03;42.44;;
67314;Laerm;57663;51.436;5.978;2022-10-16T00:34:39;38.57;36.15;43.81;;
67314;Laerm;57663;51.436;5.978;2022-10-16T00:34:49;38.43;37.14;43.39;;
67314;Laerm;57663;51.436;5.978;2022-10-16T00:34:59;38.32;37.09;40.59;;
67314;Laerm;57663;51.436;5.978;2022-10-16T00:35:10;38.20;36.91;40.99;;
67314;Laerm;57663;51.436;5.978;2022-10-16T00:35:20;38.59;37.06;40.68;;
67314;Laerm;57663;51.436;5.978;2022-10-16T00:35:30;38.20;36.95;42.29;;
67314;Laerm;57663;51.436;5.978;2022-10-16T00:35:41;41.80;36.98;59.74;;
67314;Laerm;57663;51.436;5.978;2022-10-16T00:35:51;38.13;36.45;40.25;;
67314;Laerm;57663;51.436;5.978;2022-10-16T00:36:02;38.30;37.08;41.07;;
67314;Laerm;57663;51.436;5.978;2022-10-16T00:36:13;38.65;37.38;40.35;;
67314;Laerm;57663;51.436;5.978;2022-10-16T00:36:24;38.88;37.20;44.44;;
67314;Laerm;57663;51.436;5.978;2022-10-16T00:36:35;38.52;37.41;40.25;;
67314;Laerm;57663;51.436;5.978;2022-10-16T00:36:46;38.26;36.83;39.50;;
67314;Laerm;57663;51.436;5.978;2022-10-16T00:36:56;38.51;37.13;41.95;;
67314;Laerm;57663;51.436;5.978;2022-10-16T00:37:07;38.63;37.13;41.33;;
67314;Laerm;57663;51.436;5.978;2022-10-16T00:37:17;38.95;36.85;42.91;;
67314;Laerm;57663;51.436;5.978;2022-10-16T00:37:27;39.54;37.39;45.27;;
67314;Laerm;57663;51.436;5.978;2022-10-16T00:37:37;42.40;39.41;48.29;;
67314;Laerm;57663;51.436;5.978;2022-10-16T00:37:48;44.09;38.25;48.50;;
67314;Laerm;57663;51.436;5.978;2022-10-16T00:37:58;42.60;38.15;52.89;;
67314;Laerm;57663;51.436;5.978;2022-10-16T00:38:09;41.41;39.07;48.84;;
67314;Laerm;57663;51.436;5.978;2022-10-16T00:38:19;41.99;38.38;45.27;;
67314;Laerm;57663;51.436;5.978;2022-10-16T00:38:29;38.66;37.17;45.65;;
67314;Laerm;57663;51.436;5.978;2022-10-16T00:38:40;39.86;38.02;43.21;;
67314;Laerm;57663;51.436;5.978;2022-10-16T00:38:50;57.94;40.87;66.27;;
67314;Laerm;57663;51.436;5.978;2022-10-16T00:39:03;49.80;46.26;54.50;;
67314;Laerm;57663;51.436;5.978;2022-10-16T00:39:13;49.39;45.48;56.47;;
67314;Laerm;57663;51.436;5.978;2022-10-16T00:39:23;48.23;45.79;53.82;;
67314;Laerm;57663;51.436;5.978;2022-10-16T00:39:35;47.76;45.08;50.90;;
67314;Laerm;57663;51.436;5.978;2022-10-16T00:39:45;48.60;45.73;51.32;;
67314;Laerm;57663;51.436;5.978;2022-10-16T00:39:55;48.73;46.05;55.07;;
67314;Laerm;57663;51.436;5.978;2022-10-16T00:40:06;52.14;48.22;64.12;;
67314;Laerm;57663;51.436;5.978;2022-10-16T00:40:16;52.79;47.02;65.05;;
67314;Laerm;57663;51.436;5.978;2022-10-16T00:40:27;50.19;46.79;58.34;;
67314;Laerm;57663;51.436;5.978;2022-10-16T00:40:38;52.90;46.67;60.13;;
67314;Laerm;57663;51.436;5.978;2022-10-16T00:40:48;54.96;47.38;66.58;;
67314;Laerm;57663;51.436;5.978;2022-10-16T00:40:59;54.60;46.26;69.74;;
67314;Laerm;57663;51.436;5.978;2022-10-16T00:41:10;53.70;48.76;59.02;;
67314;Laerm;57663;51.436;5.978;2022-10-16T00:41:22;49.96;42.86;57.94;;
67314;Laerm;57663;51.436;5.978;2022-10-16T00:41:33;51.28;39.40;73.04;;
67314;Laerm;57663;51.436;5.978;2022-10-16T00:41:43;44.66;38.34;55.39;;
67314;Laerm;57663;51.436;5.978;2022-10-16T00:41:54;46.70;39.11;60.30;;
67314;Laerm;57663;51.436;5.978;2022-10-16T00:42:04;42.56;37.96;52.08;;
67314;Laerm;57663;51.436;5.978;2022-10-16T00:42:15;42.45;37.65;53.59;;
67314;Laerm;57663;51.436;5.978;2022-10-16T00:42:26;44.52;38.47;57.84;;
67314;Laerm;57663;51.436;5.978;2022-10-16T00:42:36;41.91;37.62;48.72;;
67314;Laerm;57663;51.436;5.978;2022-10-16T00:42:46;40.05;36.87;46.14;;
67314;Laerm;57663;51.436;5.978;2022-10-16T00:42:57;41.66;37.93;51.94;;
67314;Laerm;57663;51.436;5.978;2022-10-16T00:43:31;41.60;37.81;53.23;;
67314;Laerm;57663;51.436;5.978;2022-10-16T00:43:56;44.66;37.97;56.55;;
67314;Laerm;57663;51.436;5.978;2022-10-16T00:44:48;44.71;36.90;57.55;;
67314;Laerm;57663;51.436;5.978;2022-10-16T00:44:59;47.88;37.96;63.85;;
67314;Laerm;57663;51.436;5.978;2022-10-16T00:45:10;38.71;36.51;42.88;;
67314;Laerm;57663;51.436;5.978;2022-10-16T00:45:20;39.03;36.91;46.10;;
67314;Laerm;57663;51.436;5.978;2022-10-16T00:45:31;39.93;37.10;49.33;;
67314;Laerm;57663;51.436;5.978;2022-10-16T00:45:41;42.89;37.55;55.52;;
67314;Laerm;57663;51.436;5.978;2022-10-16T00:45:52;39.09;37.22;48.90;;
67314;Laerm;57663;51.436;5.978;2022-10-16T00:46:03;44.69;38.43;59.54;;
67314;Laerm;57663;51.436;5.978;2022-10-16T00:46:21;43.95;36.84;63.51;;
67314;Laerm;57663;51.436;5.978;2022-10-16T00:46:37;44.83;36.57;60.11;;
67314;Laerm;57663;51.436;5.978;2022-10-16T00:46:48;42.92;36.90;57.64;;
67314;Laerm;57663;51.436;5.978;2022-10-16T00:47:00;39.58;36.63;56.01;;
67314;Laerm;57663;51.436;5.978;2022-10-16T00:47:10;38.42;36.57;43.04;;
67314;Laerm;57663;51.436;5.978;2022-10-16T00:47:24;38.94;37.12;49.28;;
67314;Laerm;57663;51.436;5.978;2022-10-16T00:47:37;39.22;37.19;53.51;;
67314;Laerm;57663;51.436;5.978;2022-10-16T00:47:49;40.44;36.89;57.28;;
67314;Laerm;57663;51.436;5.978;2022-10-16T00:48:01;40.55;36.90;52.10;;
67314;Laerm;57663;51.436;5.978;2022-10-16T00:48:12;38.48;37.23;40.54;;
67314;Laerm;57663;51.436;5.978;2022-10-16T00:48:23;38.47;37.13;39.70;;
67314;Laerm;57663;51.436;5.978;2022-10-16T00:48:34;38.33;37.08;40.29;;
67314;Laerm;57663;51.436;5.978;2022-10-16T00:49:15;38.19;36.30;46.57;;
67314;Laerm;57663;51.436;5.978;2022-10-16T00:49:26;38.41;36.77;42.86;;
67314;Laerm;57663;51.436;5.978;2022-10-16T00:49:29;37.81;36.29;40.71;;
67314;Laerm;57663;51.436;5.978;2022-10-16T00:49:36;45.94;37.86;51.17;;
67314;Laerm;57663;51.436;5.978;2022-10-16T00:49:47;42.41;38.73;48.20;;
67314;Laerm;57663;51.436;5.978;2022-10-16T00:50:13;38.86;36.99;40.87;;
67314;Laerm;57663;51.436;5.978;2022-10-16T00:50:27;40.00;36.75;56.10;;
67314;Laerm;57663;51.436;5.978;2022-10-16T00:50:38;38.62;36.68;45.83;;
67314;Laerm;57663;51.436;5.978;2022-10-16T00:50:51;38.56;36.76;45.16;;
67314;Laerm;57663;51.436;5.978;2022-10-16T00:51:02;38.76;36.41;43.84;;
67314;Laerm;57663;51.436;5.978;2022-10-16T00:51:14;38.29;36.90;42.17;;
67314;Laerm;57663;51.436;5.978;2022-10-16T00:51:32;39.01;36.36;48.08;;
67314;Laerm;57663;51.436;5.978;2022-10-16T00:51:52;42.52;37.14;53.87;;
67314;Laerm;57663;51.436;5.978;2022-10-16T00:52:03;38.02;36.57;39.66;;
67314;Laerm;57663;51.436;5.978;2022-10-16T00:52:15;38.01;36.74;39.52;;
67314;Laerm;57663;51.436;5.978;2022-10-16T00:52:25;38.09;36.43;39.40;;
67314;Laerm;57663;51.436;5.978;2022-10-16T00:52:36;38.08;36.58;39.59;;
67314;Laerm;57663;51.436;5.978;2022-10-16T00:52:48;38.35;37.05;40.93;;
67314;Laerm;57663;51.436;5.978;2022-10-16T00:53:00;38.64;36.76;41.92;;
67314;Laerm;57663;51.436;5.978;2022-10-16T00:53:11;38.23;36.86;40.19;;
67314;Laerm;57663;51.436;5.978;2022-10-16T00:53:22;38.15;37.17;39.99;;
67314;Laerm;57663;51.436;5.978;2022-10-16T00:53:33;37.96;36.42;39.43;;
67314;Laerm;57663;51.436;5.978;2022-10-16T00:53:45;38.77;37.19;40.06;;
67314;Laerm;57663;51.436;5.978;2022-10-16T00:53:55;47.14;38.95;59.64;;
67314;Laerm;57663;51.436;5.978;2022-10-16T00:54:10;39.97;37.72;46.07;;
67314;Laerm;57663;51.436;5.978;2022-10-16T00:54:29;39.36;36.38;48.19;;
67314;Laerm;57663;51.436;5.978;2022-10-16T00:54:41;38.42;36.60;43.40;;
67314;Laerm;57663;51.436;5.978;2022-10-16T00:54:51;38.22;36.71;41.23;;
67314;Laerm;57663;51.436;5.978;2022-10-16T00:55:03;38.46;37.07;40.43;;
67314;Laerm;57663;51.436;5.978;2022-10-16T00:55:14;40.24;37.33;46.90;;
67314;Laerm;57663;51.436;5.978;2022-10-16T00:55:25;54.30;40.71;65.90;;
67314;Laerm;57663;51.436;5.978;2022-10-16T00:55:36;39.06;37.25;42.27;;
67314;Laerm;57663;51.436;5.978;2022-10-16T00:55:46;38.35;36.88;39.63;;
67314;Laerm;57663;51.436;5.978;2022-10-16T00:55:57;38.34;36.89;41.70;;
67314;Laerm;57663;51.436;5.978;2022-10-16T00:56:07;42.96;36.87;58.47;;
67314;Laerm;57663;51.436;5.978;2022-10-16T00:56:17;50.90;38.21;62.35;;
67314;Laerm;57663;51.436;5.978;2022-10-16T00:56:28;47.55;38.16;57.95;;
67314;Laerm;57663;51.436;5.978;2022-10-16T00:56:38;43.05;37.47;52.27;;
67314;Laerm;57663;51.436;5.978;2022-10-16T00:56:49;39.10;36.99;43.63;;
67314;Laerm;57663;51.436;5.978;2022-10-16T00:57:03;38.05;36.26;41.56;;
67314;Laerm;57663;51.436;5.978;2022-10-16T00:57:14;38.45;36.96;40.12;;
67314;Laerm;57663;51.436;5.978;2022-10-16T00:57:24;38.68;36.94;45.08;;
67314;Laerm;57663;51.436;5.978;2022-10-16T00:57:35;38.17;36.63;40.27;;
67314;Laerm;57663;51.436;5.978;2022-10-16T00:57:46;38.52;37.05;40.64;;
67314;Laerm;57663;51.436;5.978;2022-10-16T00:57:56;38.11;36.88;39.58;;
67314;Laerm;57663;51.436;5.978;2022-10-16T00:58:07;38.54;37.33;40.44;;
67314;Laerm;57663;51.436;5.978;2022-10-16T00:58:18;38.53;37.14;41.37;;
67314;Laerm;57663;51.436;5.978;2022-10-16T00:58:29;38.28;36.80;39.72;;
67314;Laerm;57663;51.436;5.978;2022-10-16T00:58:39;38.79;37.10;41.31;;
67314;Laerm;57663;51.436;5.978;2022-10-16T00:58:50;38.83;37.14;42.10;;
67314;Laerm;57663;51.436;5.978;2022-10-16T00:59:02;39.99;37.28;46.82;;
67314;Laerm;57663;51.436;5.978;2022-10-16T00:59:15;40.66;37.31;48.93;;
67314;Laerm;57663;51.436;5.978;2022-10-16T00:59:27;39.89;36.99;45.65;;
67314;Laerm;57663;51.436;5.978;2022-10-16T00:59:39;41.58;37.24;49.49;;
67314;Laerm;57663;51.436;5.978;2022-10-16T00:59:50;39.72;36.97;45.57;;
67314;Laerm;57663;51.436;5.978;2022-10-16T01:00:00;38.81;37.30;41.61;;
67314;Laerm;57663;51.436;5.978;2022-10-16T01:00:12;41.95;36.90;48.99;;
67314;Laerm;57663;51.436;5.978;2022-10-16T01:00:24;39.31;36.48;43.84;;
67314;Laerm;57663;51.436;5.978;2022-10-16T01:00:35;39.11;37.22;43.51;;
67314;Laerm;57663;51.436;5.978;2022-10-16T01:00:45;38.85;37.03;42.67;;
67314;Laerm;57663;51.436;5.978;2022-10-16T01:00:56;39.28;36.86;44.12;;
67314;Laerm;57663;51.436;5.978;2022-10-16T01:01:06;42.33;37.57;51.37;;
67314;Laerm;57663;51.436;5.978;2022-10-16T01:01:16;39.96;37.40;45.76;;
67314;Laerm;57663;51.436;5.978;2022-10-16T01:01:27;38.90;37.23;42.56;;
67314;Laerm;57663;51.436;5.978;2022-10-16T01:01:38;39.88;36.90;44.86;;
67314;Laerm;57663;51.436;5.978;2022-10-16T01:01:48;41.54;37.72;51.29;;
67314;Laerm;57663;51.436;5.978;2022-10-16T01:01:59;41.31;37.55;49.07;;
67314;Laerm;57663;51.436;5.978;2022-10-16T01:02:12;39.90;37.59;43.68;;
67314;Laerm;57663;51.436;5.978;2022-10-16T01:02:22;41.41;37.27;48.40;;
67314;Laerm;57663;51.436;5.978;2022-10-16T01:02:33;39.69;37.85;42.43;;
67314;Laerm;57663;51.436;5.978;2022-10-16T01:02:43;40.88;37.57;47.36;;
67314;Laerm;57663;51.436;5.978;2022-10-16T01:02:58;39.39;37.44;44.44;;
67314;Laerm;57663;51.436;5.978;2022-10-16T01:03:22;39.32;37.25;45.43;;
67314;Laerm;57663;51.436;5.978;2022-10-16T01:03:34;39.60;36.97;45.73;;